Santa Rosa Valley, California
Current Conditions -  °F | °C
As of 6:55 PM on Monday 22 Dec 2014 (Local Time) from KCMA Reporting Station
Clear Clear  
Wind Chill: 61°   Ceiling: Unl
Heat Index: 61°   Visibility: 10mi
Dew Point: 54°   Wind: 5mph
Humidity: 78%   Direction: 80°E
Pressure: 29.95"   Gusts: NA
Location:  34.1954°N, 119.003°W
Report Text: KCMA 230255Z 08004KT 10SM CLR 16/12 A2995 RMK AO2 SLP152 T01610122 53004
Loading
Personal Weather Stations






























Interactive Weather Map New forecast layout! Learn more

10-Day Weather Forecast

Advertisements
Track Severe Weather on mobile